sensor_id;sensor_type;location;lat;lon;timestamp;P1;durP1;ratioP1;P2;durP2;ratioP2
7330;SDS011;3706;49.198;7.064;2022-10-16T00:00:47;4.57;;;1.60;;
7330;SDS011;3706;49.198;7.064;2022-10-16T00:03:14;1.60;;;1.30;;
7330;SDS011;3706;49.198;7.064;2022-10-16T00:05:41;1.67;;;1.40;;
7330;SDS011;3706;49.198;7.064;2022-10-16T00:08:10;9.53;;;1.60;;
7330;SDS011;3706;49.198;7.064;2022-10-16T00:10:38;3.03;;;1.40;;
7330;SDS011;3706;49.198;7.064;2022-10-16T00:13:07;2.23;;;1.50;;
7330;SDS011;3706;49.198;7.064;2022-10-16T00:15:35;1.70;;;1.60;;
7330;SDS011;3706;49.198;7.064;2022-10-16T00:18:04;1.87;;;1.30;;
7330;SDS011;3706;49.198;7.064;2022-10-16T00:20:33;1.90;;;1.40;;
7330;SDS011;3706;49.198;7.064;2022-10-16T00:23:02;2.93;;;1.40;;
7330;SDS011;3706;49.198;7.064;2022-10-16T00:25:29;1.90;;;1.40;;
7330;SDS011;3706;49.198;7.064;2022-10-16T00:27:57;2.13;;;1.27;;
7330;SDS011;3706;49.198;7.064;2022-10-16T00:30:26;4.13;;;1.30;;
7330;SDS011;3706;49.198;7.064;2022-10-16T00:32:53;1.40;;;1.30;;
7330;SDS011;3706;49.198;7.064;2022-10-16T00:35:21;4.37;;;1.87;;
7330;SDS011;3706;49.198;7.064;2022-10-16T00:37:48;2.73;;;1.97;;
7330;SDS011;3706;49.198;7.064;2022-10-16T00:40:15;2.17;;;1.70;;
7330;SDS011;3706;49.198;7.064;2022-10-16T00:42:42;4.83;;;1.70;;
7330;SDS011;3706;49.198;7.064;2022-10-16T00:45:09;4.83;;;1.67;;
7330;SDS011;3706;49.198;7.064;2022-10-16T00:47:39;2.47;;;1.70;;
7330;SDS011;3706;49.198;7.064;2022-10-16T00:50:10;5.37;;;1.70;;
7330;SDS011;3706;49.198;7.064;2022-10-16T00:52:45;4.83;;;2.00;;
7330;SDS011;3706;49.198;7.064;2022-10-16T00:55:14;3.83;;;1.77;;
7330;SDS011;3706;49.198;7.064;2022-10-16T00:57:41;3.50;;;1.77;;
7330;SDS011;3706;49.198;7.064;2022-10-16T01:00:10;1.80;;;1.40;;
7330;SDS011;3706;49.198;7.064;2022-10-16T01:02:40;6.67;;;1.60;;
7330;SDS011;3706;49.198;7.064;2022-10-16T01:05:07;2.27;;;1.37;;
7330;SDS011;3706;49.198;7.064;2022-10-16T01:07:37;2.13;;;1.50;;
7330;SDS011;3706;49.198;7.064;2022-10-16T01:10:14;2.33;;;1.37;;
7330;SDS011;3706;49.198;7.064;2022-10-16T01:12:48;2.87;;;1.43;;
7330;SDS011;3706;49.198;7.064;2022-10-16T01:15:21;2.93;;;1.20;;
7330;SDS011;3706;49.198;7.064;2022-10-16T01:17:56;4.27;;;1.67;;
7330;SDS011;3706;49.198;7.064;2022-10-16T01:20:27;2.40;;;1.43;;
7330;SDS011;3706;49.198;7.064;2022-10-16T01:23:09;9.47;;;1.93;;
7330;SDS011;3706;49.198;7.064;2022-10-16T01:25:53;3.60;;;1.47;;
7330;SDS011;3706;49.198;7.064;2022-10-16T01:28:36;3.67;;;1.53;;
7330;SDS011;3706;49.198;7.064;2022-10-16T01:31:07;3.70;;;1.40;;
7330;SDS011;3706;49.198;7.064;2022-10-16T01:33:38;7.97;;;1.47;;
7330;SDS011;3706;49.198;7.064;2022-10-16T01:36:09;2.47;;;1.30;;
7330;SDS011;3706;49.198;7.064;2022-10-16T01:38:39;1.20;;;1.10;;
7330;SDS011;3706;49.198;7.064;2022-10-16T01:41:10;2.23;;;1.13;;
7330;SDS011;3706;49.198;7.064;2022-10-16T01:43:43;3.30;;;1.10;;
7330;SDS011;3706;49.198;7.064;2022-10-16T01:46:15;4.27;;;1.23;;
7330;SDS011;3706;49.198;7.064;2022-10-16T01:48:46;1.80;;;1.10;;
7330;SDS011;3706;49.198;7.064;2022-10-16T01:51:14;5.90;;;1.20;;
7330;SDS011;3706;49.198;7.064;2022-10-16T01:53:43;1.10;;;0.97;;
7330;SDS011;3706;49.198;7.064;2022-10-16T01:56:14;3.60;;;1.10;;
7330;SDS011;3706;49.198;7.064;2022-10-16T01:58:47;2.87;;;1.13;;
7330;SDS011;3706;49.198;7.064;2022-10-16T02:01:17;2.33;;;1.50;;
7330;SDS011;3706;49.198;7.064;2022-10-16T02:03:48;3.47;;;1.30;;
7330;SDS011;3706;49.198;7.064;2022-10-16T02:06:18;4.63;;;1.07;;
7330;SDS011;3706;49.198;7.064;2022-10-16T02:08:45;1.03;;;0.93;;
7330;SDS011;3706;49.198;7.064;2022-10-16T02:11:12;4.20;;;1.27;;
7330;SDS011;3706;49.198;7.064;2022-10-16T02:13:41;2.57;;;1.40;;
7330;SDS011;3706;49.198;7.064;2022-10-16T02:16:12;10.10;;;1.30;;
7330;SDS011;3706;49.198;7.064;2022-10-16T02:18:40;3.10;;;1.27;;
7330;SDS011;3706;49.198;7.064;2022-10-16T02:21:10;1.83;;;1.30;;
7330;SDS011;3706;49.198;7.064;2022-10-16T02:23:45;1.30;;;1.10;;
7330;SDS011;3706;49.198;7.064;2022-10-16T02:26:19;2.03;;;1.50;;
7330;SDS011;3706;49.198;7.064;2022-10-16T02:28:53;2.07;;;1.43;;
7330;SDS011;3706;49.198;7.064;2022-10-16T02:31:26;3.20;;;1.60;;
7330;SDS011;3706;49.198;7.064;2022-10-16T02:33:59;3.87;;;1.63;;
7330;SDS011;3706;49.198;7.064;2022-10-16T02:36:30;3.50;;;1.93;;
7330;SDS011;3706;49.198;7.064;2022-10-16T02:38:58;4.30;;;1.23;;
7330;SDS011;3706;49.198;7.064;2022-10-16T02:41:26;2.80;;;1.50;;
7330;SDS011;3706;49.198;7.064;2022-10-16T02:43:53;2.93;;;1.70;;
7330;SDS011;3706;49.198;7.064;2022-10-16T02:46:21;4.13;;;1.80;;
7330;SDS011;3706;49.198;7.064;2022-10-16T02:48:49;1.90;;;1.80;;
7330;SDS011;3706;49.198;7.064;2022-10-16T02:51:16;3.77;;;1.80;;
7330;SDS011;3706;49.198;7.064;2022-10-16T02:53:43;3.47;;;1.70;;
7330;SDS011;3706;49.198;7.064;2022-10-16T02:56:10;2.27;;;1.40;;
7330;SDS011;3706;49.198;7.064;2022-10-16T02:58:37;2.37;;;1.47;;
7330;SDS011;3706;49.198;7.064;2022-10-16T03:01:04;7.10;;;1.37;;
7330;SDS011;3706;49.198;7.064;2022-10-16T03:03:31;8.83;;;1.50;;
7330;SDS011;3706;49.198;7.064;2022-10-16T03:05:59;3.53;;;1.37;;
7330;SDS011;3706;49.198;7.064;2022-10-16T03:08:26;3.10;;;1.67;;
7330;SDS011;3706;49.198;7.064;2022-10-16T03:10:53;4.37;;;1.87;;
7330;SDS011;3706;49.198;7.064;2022-10-16T03:13:19;4.97;;;1.83;;
7330;SDS011;3706;49.198;7.064;2022-10-16T03:15:46;3.73;;;1.63;;
7330;SDS011;3706;49.198;7.064;2022-10-16T03:18:14;5.53;;;1.50;;
7330;SDS011;3706;49.198;7.064;2022-10-16T03:20:42;2.80;;;1.80;;
7330;SDS011;3706;49.198;7.064;2022-10-16T03:23:10;2.27;;;1.60;;
7330;SDS011;3706;49.198;7.064;2022-10-16T03:25:37;2.20;;;1.23;;
7330;SDS011;3706;49.198;7.064;2022-10-16T03:28:04;2.47;;;1.23;;
7330;SDS011;3706;49.198;7.064;2022-10-16T03:30:31;1.10;;;1.00;;
7330;SDS011;3706;49.198;7.064;2022-10-16T03:32:58;3.27;;;1.37;;
7330;SDS011;3706;49.198;7.064;2022-10-16T03:35:25;4.17;;;1.70;;
7330;SDS011;3706;49.198;7.064;2022-10-16T03:37:52;3.30;;;1.30;;
7330;SDS011;3706;49.198;7.064;2022-10-16T03:40:20;0.80;;;0.80;;
7330;SDS011;3706;49.198;7.064;2022-10-16T03:42:47;5.47;;;1.67;;
7330;SDS011;3706;49.198;7.064;2022-10-16T03:45:14;6.30;;;1.20;;
7330;SDS011;3706;49.198;7.064;2022-10-16T03:47:41;2.33;;;0.90;;
7330;SDS011;3706;49.198;7.064;2022-10-16T03:50:08;1.67;;;1.20;;
7330;SDS011;3706;49.198;7.064;2022-10-16T03:52:35;1.10;;;1.00;;
7330;SDS011;3706;49.198;7.064;2022-10-16T03:55:02;1.50;;;1.00;;
7330;SDS011;3706;49.198;7.064;2022-10-16T03:57:30;0.97;;;0.83;;
7330;SDS011;3706;49.198;7.064;2022-10-16T03:59:57;3.40;;;0.90;;
7330;SDS011;3706;49.198;7.064;2022-10-16T04:02:24;2.07;;;1.30;;
7330;SDS011;3706;49.198;7.064;2022-10-16T04:04:51;3.43;;;1.20;;
7330;SDS011;3706;49.198;7.064;2022-10-16T04:07:18;3.03;;;1.20;;
7330;SDS011;3706;49.198;7.064;2022-10-16T04:09:45;2.20;;;1.13;;
7330;SDS011;3706;49.198;7.064;2022-10-16T04:12:12;3.63;;;1.23;;
7330;SDS011;3706;49.198;7.064;2022-10-16T04:14:40;2.37;;;1.40;;
7330;SDS011;3706;49.198;7.064;2022-10-16T04:17:07;3.20;;;1.60;;
7330;SDS011;3706;49.198;7.064;2022-10-16T04:19:34;5.73;;;1.07;;
7330;SDS011;3706;49.198;7.064;2022-10-16T04:22:04;1.40;;;1.20;;
7330;SDS011;3706;49.198;7.064;2022-10-16T04:24:31;3.83;;;1.30;;
7330;SDS011;3706;49.198;7.064;2022-10-16T04:26:58;2.10;;;1.20;;
7330;SDS011;3706;49.198;7.064;2022-10-16T04:29:24;3.83;;;0.90;;
7330;SDS011;3706;49.198;7.064;2022-10-16T04:31:53;1.33;;;0.93;;
7330;SDS011;3706;49.198;7.064;2022-10-16T04:34:20;5.20;;;1.30;;
7330;SDS011;3706;49.198;7.064;2022-10-16T04:36:47;5.70;;;1.03;;
7330;SDS011;3706;49.198;7.064;2022-10-16T04:39:14;3.33;;;1.10;;
7330;SDS011;3706;49.198;7.064;2022-10-16T04:41:41;2.30;;;1.37;;
7330;SDS011;3706;49.198;7.064;2022-10-16T04:44:08;2.70;;;1.33;;
7330;SDS011;3706;49.198;7.064;2022-10-16T04:46:35;5.07;;;1.30;;
7330;SDS011;3706;49.198;7.064;2022-10-16T04:49:03;6.73;;;1.50;;
7330;SDS011;3706;49.198;7.064;2022-10-16T04:51:30;1.90;;;1.20;;
7330;SDS011;3706;49.198;7.064;2022-10-16T04:53:57;1.93;;;1.23;;
7330;SDS011;3706;49.198;7.064;2022-10-16T04:56:24;6.37;;;1.40;;
7330;SDS011;3706;49.198;7.064;2022-10-16T04:58:51;2.33;;;1.20;;
7330;SDS011;3706;49.198;7.064;2022-10-16T05:01:18;3.27;;;1.50;;
7330;SDS011;3706;49.198;7.064;2022-10-16T05:03:45;3.53;;;1.67;;
7330;SDS011;3706;49.198;7.064;2022-10-16T05:06:13;0.97;;;0.97;;
7330;SDS011;3706;49.198;7.064;2022-10-16T05:08:40;2.20;;;1.10;;
7330;SDS011;3706;49.198;7.064;2022-10-16T05:11:07;5.23;;;1.60;;
7330;SDS011;3706;49.198;7.064;2022-10-16T05:13:34;4.57;;;1.50;;
7330;SDS011;3706;49.198;7.064;2022-10-16T05:16:01;2.23;;;1.23;;
7330;SDS011;3706;49.198;7.064;2022-10-16T05:18:28;5.20;;;1.33;;
7330;SDS011;3706;49.198;7.064;2022-10-16T05:20:55;2.90;;;1.63;;
7330;SDS011;3706;49.198;7.064;2022-10-16T05:23:23;3.07;;;1.43;;
7330;SDS011;3706;49.198;7.064;2022-10-16T05:25:53;3.23;;;1.50;;
7330;SDS011;3706;49.198;7.064;2022-10-16T05:28:23;3.40;;;1.20;;
7330;SDS011;3706;49.198;7.064;2022-10-16T05:30:50;2.00;;;1.40;;
7330;SDS011;3706;49.198;7.064;2022-10-16T05:33:19;1.57;;;1.20;;
7330;SDS011;3706;49.198;7.064;2022-10-16T05:35:46;4.50;;;1.60;;
7330;SDS011;3706;49.198;7.064;2022-10-16T05:38:14;3.10;;;1.40;;
7330;SDS011;3706;49.198;7.064;2022-10-16T05:40:43;2.53;;;1.10;;
7330;SDS011;3706;49.198;7.064;2022-10-16T05:43:16;2.40;;;1.60;;
7330;SDS011;3706;49.198;7.064;2022-10-16T05:45:43;1.10;;;1.00;;
7330;SDS011;3706;49.198;7.064;2022-10-16T05:48:10;1.73;;;1.20;;
7330;SDS011;3706;49.198;7.064;2022-10-16T05:50:37;2.80;;;1.50;;
7330;SDS011;3706;49.198;7.064;2022-10-16T05:53:04;3.13;;;1.50;;
7330;SDS011;3706;49.198;7.064;2022-10-16T05:55:31;1.60;;;1.50;;
7330;SDS011;3706;49.198;7.064;2022-10-16T05:57:59;2.13;;;1.40;;
7330;SDS011;3706;49.198;7.064;2022-10-16T06:00:26;5.27;;;1.90;;
7330;SDS011;3706;49.198;7.064;2022-10-16T06:02:53;5.13;;;1.73;;
7330;SDS011;3706;49.198;7.064;2022-10-16T06:05:20;7.23;;;1.40;;
7330;SDS011;3706;49.198;7.064;2022-10-16T06:07:47;4.20;;;1.80;;
7330;SDS011;3706;49.198;7.064;2022-10-16T06:10:14;5.93;;;1.77;;
7330;SDS011;3706;49.198;7.064;2022-10-16T06:12:41;2.30;;;1.10;;
7330;SDS011;3706;49.198;7.064;2022-10-16T06:15:10;2.83;;;1.80;;
7330;SDS011;3706;49.198;7.064;2022-10-16T06:17:37;1.63;;;1.40;;
7330;SDS011;3706;49.198;7.064;2022-10-16T06:20:04;1.93;;;1.73;;
7330;SDS011;3706;49.198;7.064;2022-10-16T06:22:31;2.20;;;1.80;;
7330;SDS011;3706;49.198;7.064;2022-10-16T06:24:58;2.20;;;1.60;;
7330;SDS011;3706;49.198;7.064;2022-10-16T06:27:25;8.87;;;1.83;;
7330;SDS011;3706;49.198;7.064;2022-10-16T06:29:52;2.30;;;1.50;;
7330;SDS011;3706;49.198;7.064;2022-10-16T06:32:20;3.60;;;1.87;;
7330;SDS011;3706;49.198;7.064;2022-10-16T06:34:47;2.90;;;1.80;;
7330;SDS011;3706;49.198;7.064;2022-10-16T06:37:14;3.60;;;2.10;;
7330;SDS011;3706;49.198;7.064;2022-10-16T06:39:41;2.00;;;1.80;;
7330;SDS011;3706;49.198;7.064;2022-10-16T06:42:08;2.00;;;1.80;;
7330;SDS011;3706;49.198;7.064;2022-10-16T06:44:35;3.30;;;1.90;;
7330;SDS011;3706;49.198;7.064;2022-10-16T06:47:02;3.03;;;2.07;;
7330;SDS011;3706;49.198;7.064;2022-10-16T06:49:30;7.37;;;2.00;;
7330;SDS011;3706;49.198;7.064;2022-10-16T06:51:57;2.47;;;1.70;;
7330;SDS011;3706;49.198;7.064;2022-10-16T06:54:24;5.47;;;2.00;;
7330;SDS011;3706;49.198;7.064;2022-10-16T06:56:51;2.93;;;2.10;;
7330;SDS011;3706;49.198;7.064;2022-10-16T06:59:19;3.60;;;1.90;;
7330;SDS011;3706;49.198;7.064;2022-10-16T07:01:46;3.87;;;2.83;;
7330;SDS011;3706;49.198;7.064;2022-10-16T07:04:13;6.17;;;4.40;;
7330;SDS011;3706;49.198;7.064;2022-10-16T07:06:42;8.07;;;4.27;;
7330;SDS011;3706;49.198;7.064;2022-10-16T07:09:09;9.83;;;4.50;;
7330;SDS011;3706;49.198;7.064;2022-10-16T07:11:37;5.07;;;3.37;;
7330;SDS011;3706;49.198;7.064;2022-10-16T07:14:08;5.20;;;3.30;;
7330;SDS011;3706;49.198;7.064;2022-10-16T07:16:41;5.97;;;4.00;;
7330;SDS011;3706;49.198;7.064;2022-10-16T07:19:08;5.93;;;3.17;;
7330;SDS011;3706;49.198;7.064;2022-10-16T07:21:37;9.00;;;3.43;;
7330;SDS011;3706;49.198;7.064;2022-10-16T07:24:07;5.70;;;2.57;;
7330;SDS011;3706;49.198;7.064;2022-10-16T07:26:37;3.30;;;2.77;;
7330;SDS011;3706;49.198;7.064;2022-10-16T07:29:04;3.63;;;2.50;;
7330;SDS011;3706;49.198;7.064;2022-10-16T07:31:33;4.17;;;2.67;;
7330;SDS011;3706;49.198;7.064;2022-10-16T07:33:59;6.33;;;2.70;;
7330;SDS011;3706;49.198;7.064;2022-10-16T07:36:27;6.13;;;2.80;;
7330;SDS011;3706;49.198;7.064;2022-10-16T07:38:53;3.50;;;2.60;;
7330;SDS011;3706;49.198;7.064;2022-10-16T07:41:22;3.70;;;2.33;;
7330;SDS011;3706;49.198;7.064;2022-10-16T07:43:49;3.83;;;2.33;;
7330;SDS011;3706;49.198;7.064;2022-10-16T07:46:17;5.80;;;2.80;;
7330;SDS011;3706;49.198;7.064;2022-10-16T07:48:45;4.33;;;2.33;;
7330;SDS011;3706;49.198;7.064;2022-10-16T07:51:13;9.50;;;2.67;;
7330;SDS011;3706;49.198;7.064;2022-10-16T07:53:41;5.40;;;2.43;;
7330;SDS011;3706;49.198;7.064;2022-10-16T07:56:08;3.87;;;2.27;;
7330;SDS011;3706;49.198;7.064;2022-10-16T07:58:36;4.70;;;2.00;;
7330;SDS011;3706;49.198;7.064;2022-10-16T08:01:04;3.63;;;2.07;;
7330;SDS011;3706;49.198;7.064;2022-10-16T08:03:31;4.27;;;2.30;;
7330;SDS011;3706;49.198;7.064;2022-10-16T08:05:58;5.03;;;2.13;;
7330;SDS011;3706;49.198;7.064;2022-10-16T08:08:26;3.80;;;2.10;;
7330;SDS011;3706;49.198;7.064;2022-10-16T08:10:53;2.60;;;2.30;;
7330;SDS011;3706;49.198;7.064;2022-10-16T08:13:20;4.67;;;2.00;;
7330;SDS011;3706;49.198;7.064;2022-10-16T08:15:49;3.57;;;2.10;;
7330;SDS011;3706;49.198;7.064;2022-10-16T08:18:16;3.53;;;2.00;;
7330;SDS011;3706;49.198;7.064;2022-10-16T08:20:42;7.90;;;2.50;;
7330;SDS011;3706;49.198;7.064;2022-10-16T08:23:09;5.20;;;1.90;;
7330;SDS011;3706;49.198;7.064;2022-10-16T08:25:38;6.37;;;2.50;;
7330;SDS011;3706;49.198;7.064;2022-10-16T08:28:06;5.57;;;2.03;;
7330;SDS011;3706;49.198;7.064;2022-10-16T08:30:34;2.67;;;2.07;;
7330;SDS011;3706;49.198;7.064;2022-10-16T08:33:02;2.63;;;2.00;;
7330;SDS011;3706;49.198;7.064;2022-10-16T08:35:29;3.07;;;1.90;;
7330;SDS011;3706;49.198;7.064;2022-10-16T08:37:56;3.87;;;2.10;;
7330;SDS011;3706;49.198;7.064;2022-10-16T08:40:24;3.03;;;1.90;;
7330;SDS011;3706;49.198;7.064;2022-10-16T08:42:57;9.03;;;3.97;;
7330;SDS011;3706;49.198;7.064;2022-10-16T08:45:44;3.60;;;2.23;;
7330;SDS011;3706;49.198;7.064;2022-10-16T08:48:29;12.10;;;8.03;;
7330;SDS011;3706;49.198;7.064;2022-10-16T08:51:01;3.83;;;2.30;;
7330;SDS011;3706;49.198;7.064;2022-10-16T08:53:31;3.00;;;2.10;;
7330;SDS011;3706;49.198;7.064;2022-10-16T08:56:04;3.57;;;2.30;;
7330;SDS011;3706;49.198;7.064;2022-10-16T08:58:31;6.80;;;2.47;;
7330;SDS011;3706;49.198;7.064;2022-10-16T09:00:59;4.33;;;2.20;;
7330;SDS011;3706;49.198;7.064;2022-10-16T09:03:36;5.27;;;2.50;;
7330;SDS011;3706;49.198;7.064;2022-10-16T09:06:24;3.47;;;1.90;;
7330;SDS011;3706;49.198;7.064;2022-10-16T09:09:13;3.03;;;2.00;;
7330;SDS011;3706;49.198;7.064;2022-10-16T09:11:53;4.83;;;1.90;;
7330;SDS011;3706;49.198;7.064;2022-10-16T09:14:34;2.87;;;2.10;;
7330;SDS011;3706;49.198;7.064;2022-10-16T09:17:25;5.20;;;2.20;;
7330;SDS011;3706;49.198;7.064;2022-10-16T09:20:12;4.77;;;2.40;;
7330;SDS011;3706;49.198;7.064;2022-10-16T09:22:45;3.53;;;1.97;;
7330;SDS011;3706;49.198;7.064;2022-10-16T09:25:14;5.03;;;1.73;;
7330;SDS011;3706;49.198;7.064;2022-10-16T09:27:43;4.27;;;2.20;;
7330;SDS011;3706;49.198;7.064;2022-10-16T09:30:13;5.50;;;2.00;;
7330;SDS011;3706;49.198;7.064;2022-10-16T09:32:42;5.47;;;1.90;;
7330;SDS011;3706;49.198;7.064;2022-10-16T09:35:14;5.80;;;2.20;;
7330;SDS011;3706;49.198;7.064;2022-10-16T09:37:44;4.23;;;2.13;;
7330;SDS011;3706;49.198;7.064;2022-10-16T09:40:13;4.00;;;2.50;;
7330;SDS011;3706;49.198;7.064;2022-10-16T09:42:51;5.67;;;2.03;;
7330;SDS011;3706;49.198;7.064;2022-10-16T09:45:23;6.17;;;2.57;;
7330;SDS011;3706;49.198;7.064;2022-10-16T09:47:50;5.03;;;2.73;;
7330;SDS011;3706;49.198;7.064;2022-10-16T09:50:23;3.03;;;2.23;;
7330;SDS011;3706;49.198;7.064;2022-10-16T09:53:02;6.27;;;2.43;;
7330;SDS011;3706;49.198;7.064;2022-10-16T09:55:30;3.73;;;2.00;;
7330;SDS011;3706;49.198;7.064;2022-10-16T09:57:57;4.97;;;2.80;;
7330;SDS011;3706;49.198;7.064;2022-10-16T10:00:24;7.00;;;2.43;;
7330;SDS011;3706;49.198;7.064;2022-10-16T10:02:51;4.83;;;2.10;;
7330;SDS011;3706;49.198;7.064;2022-10-16T10:05:20;2.50;;;2.10;;
7330;SDS011;3706;49.198;7.064;2022-10-16T10:07:54;3.60;;;2.47;;
7330;SDS011;3706;49.198;7.064;2022-10-16T10:10:24;5.83;;;2.40;;
7330;SDS011;3706;49.198;7.064;2022-10-16T10:12:52;2.10;;;1.90;;
7330;SDS011;3706;49.198;7.064;2022-10-16T10:15:20;7.07;;;2.20;;
7330;SDS011;3706;49.198;7.064;2022-10-16T10:17:49;6.23;;;2.30;;
7330;SDS011;3706;49.198;7.064;2022-10-16T10:20:23;5.33;;;2.10;;
7330;SDS011;3706;49.198;7.064;2022-10-16T10:22:52;4.37;;;2.03;;
7330;SDS011;3706;49.198;7.064;2022-10-16T10:25:32;7.10;;;1.97;;
7330;SDS011;3706;49.198;7.064;2022-10-16T10:28:17;4.90;;;2.40;;
7330;SDS011;3706;49.198;7.064;2022-10-16T10:30:54;5.97;;;1.93;;
7330;SDS011;3706;49.198;7.064;2022-10-16T10:33:28;4.23;;;2.47;;
7330;SDS011;3706;49.198;7.064;2022-10-16T10:36:05;5.13;;;2.17;;
7330;SDS011;3706;49.198;7.064;2022-10-16T10:38:47;4.47;;;2.30;;
7330;SDS011;3706;49.198;7.064;2022-10-16T10:41:25;2.00;;;1.80;;
7330;SDS011;3706;49.198;7.064;2022-10-16T10:44:11;6.20;;;2.10;;
7330;SDS011;3706;49.198;7.064;2022-10-16T10:46:45;2.93;;;2.50;;
7330;SDS011;3706;49.198;7.064;2022-10-16T10:49:20;5.43;;;2.30;;
7330;SDS011;3706;49.198;7.064;2022-10-16T10:52:05;5.90;;;2.80;;
7330;SDS011;3706;49.198;7.064;2022-10-16T10:54:49;10.20;;;2.50;;
7330;SDS011;3706;49.198;7.064;2022-10-16T10:57:27;2.93;;;2.10;;
7330;SDS011;3706;49.198;7.064;2022-10-16T11:00:05;3.57;;;2.47;;
7330;SDS011;3706;49.198;7.064;2022-10-16T11:02:47;5.00;;;2.70;;
7330;SDS011;3706;49.198;7.064;2022-10-16T11:05:26;5.00;;;2.67;;
7330;SDS011;3706;49.198;7.064;2022-10-16T11:08:03;5.57;;;2.20;;
7330;SDS011;3706;49.198;7.064;2022-10-16T11:10:40;4.83;;;2.20;;
7330;SDS011;3706;49.198;7.064;2022-10-16T11:13:16;2.60;;;2.30;;
7330;SDS011;3706;49.198;7.064;2022-10-16T11:15:57;5.63;;;2.60;;
7330;SDS011;3706;49.198;7.064;2022-10-16T11:18:28;4.77;;;2.30;;
7330;SDS011;3706;49.198;7.064;2022-10-16T11:21:01;3.90;;;2.20;;
7330;SDS011;3706;49.198;7.064;2022-10-16T11:23:35;5.03;;;2.17;;
7330;SDS011;3706;49.198;7.064;2022-10-16T11:26:10;4.03;;;2.13;;
7330;SDS011;3706;49.198;7.064;2022-10-16T11:28:43;4.73;;;2.33;;
7330;SDS011;3706;49.198;7.064;2022-10-16T11:31:14;5.07;;;2.20;;
7330;SDS011;3706;49.198;7.064;2022-10-16T11:33:46;4.57;;;2.37;;
7330;SDS011;3706;49.198;7.064;2022-10-16T11:36:19;4.20;;;1.90;;
7330;SDS011;3706;49.198;7.064;2022-10-16T11:38:51;7.47;;;2.20;;
7330;SDS011;3706;49.198;7.064;2022-10-16T11:41:25;4.40;;;2.30;;
7330;SDS011;3706;49.198;7.064;2022-10-16T11:44:11;6.10;;;2.20;;
7330;SDS011;3706;49.198;7.064;2022-10-16T11:46:46;4.27;;;2.30;;
7330;SDS011;3706;49.198;7.064;2022-10-16T11:49:19;3.53;;;2.40;;
7330;SDS011;3706;49.198;7.064;2022-10-16T11:51:51;6.20;;;2.53;;
7330;SDS011;3706;49.198;7.064;2022-10-16T11:54:28;3.63;;;2.20;;
7330;SDS011;3706;49.198;7.064;2022-10-16T11:57:02;4.70;;;2.30;;
7330;SDS011;3706;49.198;7.064;2022-10-16T11:59:38;4.40;;;2.43;;
7330;SDS011;3706;49.198;7.064;2022-10-16T12:02:22;3.63;;;2.20;;
7330;SDS011;3706;49.198;7.064;2022-10-16T12:05:02;5.73;;;2.27;;
7330;SDS011;3706;49.198;7.064;2022-10-16T12:07:41;4.60;;;2.70;;
7330;SDS011;3706;49.198;7.064;2022-10-16T12:10:22;2.87;;;2.07;;
7330;SDS011;3706;49.198;7.064;2022-10-16T12:12:51;5.53;;;2.10;;
7330;SDS011;3706;49.198;7.064;2022-10-16T12:15:20;3.23;;;2.20;;
7330;SDS011;3706;49.198;7.064;2022-10-16T12:17:50;6.70;;;2.50;;
7330;SDS011;3706;49.198;7.064;2022-10-16T12:20:27;8.23;;;1.97;;
7330;SDS011;3706;49.198;7.064;2022-10-16T12:22:58;7.53;;;2.37;;
7330;SDS011;3706;49.198;7.064;2022-10-16T12:25:29;7.90;;;3.63;;
7330;SDS011;3706;49.198;7.064;2022-10-16T12:27:59;9.47;;;5.40;;
7330;SDS011;3706;49.198;7.064;2022-10-16T12:30:28;11.17;;;4.10;;
7330;SDS011;3706;49.198;7.064;2022-10-16T12:32:57;10.87;;;5.63;;
7330;SDS011;3706;49.198;7.064;2022-10-16T12:35:27;13.60;;;7.87;;
7330;SDS011;3706;49.198;7.064;2022-10-16T12:38:04;3.23;;;2.70;;
7330;SDS011;3706;49.198;7.064;2022-10-16T12:40:42;11.87;;;4.80;;
7330;SDS011;3706;49.198;7.064;2022-10-16T12:43:11;12.93;;;7.40;;
7330;SDS011;3706;49.198;7.064;2022-10-16T12:45:58;7.67;;;4.90;;
7330;SDS011;3706;49.198;7.064;2022-10-16T12:48:26;12.10;;;6.43;;
7330;SDS011;3706;49.198;7.064;2022-10-16T12:50:53;11.43;;;6.67;;
7330;SDS011;3706;49.198;7.064;2022-10-16T12:53:21;3.73;;;3.17;;
7330;SDS011;3706;49.198;7.064;2022-10-16T12:55:54;7.87;;;2.97;;
7330;SDS011;3706;49.198;7.064;2022-10-16T12:58:34;9.73;;;5.27;;
7330;SDS011;3706;49.198;7.064;2022-10-16T13:01:17;8.20;;;3.50;;
7330;SDS011;3706;49.198;7.064;2022-10-16T13:04:02;5.87;;;3.00;;
7330;SDS011;3706;49.198;7.064;2022-10-16T13:06:50;4.73;;;3.20;;
7330;SDS011;3706;49.198;7.064;2022-10-16T13:09:33;7.57;;;4.10;;
7330;SDS011;3706;49.198;7.064;2022-10-16T13:12:18;3.83;;;3.07;;
7330;SDS011;3706;49.198;7.064;2022-10-16T13:15:11;5.23;;;4.07;;
7330;SDS011;3706;49.198;7.064;2022-10-16T13:17:59;5.10;;;3.37;;
7330;SDS011;3706;49.198;7.064;2022-10-16T13:20:33;8.87;;;3.00;;
7330;SDS011;3706;49.198;7.064;2022-10-16T13:23:17;4.07;;;2.70;;
7330;SDS011;3706;49.198;7.064;2022-10-16T13:25:54;5.03;;;2.77;;
7330;SDS011;3706;49.198;7.064;2022-10-16T13:28:29;8.30;;;2.37;;
7330;SDS011;3706;49.198;7.064;2022-10-16T13:30:59;3.50;;;2.67;;
7330;SDS011;3706;49.198;7.064;2022-10-16T13:33:30;4.77;;;2.50;;
7330;SDS011;3706;49.198;7.064;2022-10-16T13:35:59;8.53;;;4.10;;
7330;SDS011;3706;49.198;7.064;2022-10-16T13:38:27;7.27;;;2.93;;
7330;SDS011;3706;49.198;7.064;2022-10-16T13:40:57;7.90;;;4.87;;
7330;SDS011;3706;49.198;7.064;2022-10-16T13:43:27;6.90;;;3.00;;
7330;SDS011;3706;49.198;7.064;2022-10-16T13:45:59;8.67;;;3.93;;
7330;SDS011;3706;49.198;7.064;2022-10-16T13:48:28;5.73;;;3.03;;
7330;SDS011;3706;49.198;7.064;2022-10-16T13:51:02;3.30;;;2.53;;
7330;SDS011;3706;49.198;7.064;2022-10-16T13:53:31;3.97;;;2.90;;
7330;SDS011;3706;49.198;7.064;2022-10-16T13:56:02;5.20;;;2.70;;
7330;SDS011;3706;49.198;7.064;2022-10-16T13:58:32;5.50;;;2.40;;
7330;SDS011;3706;49.198;7.064;2022-10-16T14:01:00;6.40;;;3.77;;
7330;SDS011;3706;49.198;7.064;2022-10-16T14:03:28;2.90;;;2.60;;
7330;SDS011;3706;49.198;7.064;2022-10-16T14:05:56;7.07;;;4.23;;
7330;SDS011;3706;49.198;7.064;2022-10-16T14:08:25;6.80;;;3.40;;
7330;SDS011;3706;49.198;7.064;2022-10-16T14:10:55;7.03;;;2.63;;
7330;SDS011;3706;49.198;7.064;2022-10-16T14:13:28;3.93;;;2.93;;
7330;SDS011;3706;49.198;7.064;2022-10-16T14:15:59;8.07;;;3.30;;
7330;SDS011;3706;49.198;7.064;2022-10-16T14:18:31;7.07;;;2.87;;
7330;SDS011;3706;49.198;7.064;2022-10-16T14:21:02;7.93;;;3.47;;
7330;SDS011;3706;49.198;7.064;2022-10-16T14:23:31;5.90;;;2.93;;
7330;SDS011;3706;49.198;7.064;2022-10-16T14:26:05;8.10;;;3.17;;
7330;SDS011;3706;49.198;7.064;2022-10-16T14:28:43;4.30;;;2.97;;
7330;SDS011;3706;49.198;7.064;2022-10-16T14:31:24;4.17;;;3.20;;
7330;SDS011;3706;49.198;7.064;2022-10-16T14:33:53;6.70;;;3.83;;
7330;SDS011;3706;49.198;7.064;2022-10-16T14:36:20;10.30;;;3.50;;
7330;SDS011;3706;49.198;7.064;2022-10-16T14:38:49;5.17;;;3.33;;
7330;SDS011;3706;49.198;7.064;2022-10-16T14:41:23;7.23;;;3.40;;
7330;SDS011;3706;49.198;7.064;2022-10-16T14:43:51;8.37;;;3.70;;
7330;SDS011;3706;49.198;7.064;2022-10-16T14:46:21;4.67;;;4.03;;
7330;SDS011;3706;49.198;7.064;2022-10-16T14:48:57;7.37;;;4.70;;
7330;SDS011;3706;49.198;7.064;2022-10-16T14:51:28;7.63;;;3.63;;
7330;SDS011;3706;49.198;7.064;2022-10-16T14:53:55;8.37;;;4.60;;
7330;SDS011;3706;49.198;7.064;2022-10-16T14:56:23;6.50;;;5.00;;
7330;SDS011;3706;49.198;7.064;2022-10-16T14:58:54;9.33;;;5.30;;
7330;SDS011;3706;49.198;7.064;2022-10-16T15:01:21;7.47;;;4.00;;
7330;SDS011;3706;49.198;7.064;2022-10-16T15:03:50;8.50;;;4.40;;
7330;SDS011;3706;49.198;7.064;2022-10-16T15:06:19;6.43;;;4.33;;
7330;SDS011;3706;49.198;7.064;2022-10-16T15:08:46;11.47;;;4.50;;
7330;SDS011;3706;49.198;7.064;2022-10-16T15:11:14;6.63;;;4.03;;
7330;SDS011;3706;49.198;7.064;2022-10-16T15:13:42;5.87;;;3.97;;
7330;SDS011;3706;49.198;7.064;2022-10-16T15:16:10;9.90;;;5.40;;
7330;SDS011;3706;49.198;7.064;2022-10-16T15:18:40;10.10;;;5.27;;
7330;SDS011;3706;49.198;7.064;2022-10-16T15:21:07;13.37;;;5.67;;
7330;SDS011;3706;49.198;7.064;2022-10-16T15:23:34;9.13;;;5.53;;
7330;SDS011;3706;49.198;7.064;2022-10-16T15:26:01;10.17;;;4.60;;
7330;SDS011;3706;49.198;7.064;2022-10-16T15:28:28;11.43;;;6.37;;
7330;SDS011;3706;49.198;7.064;2022-10-16T15:30:55;4.83;;;4.10;;
7330;SDS011;3706;49.198;7.064;2022-10-16T15:33:23;14.10;;;7.53;;
7330;SDS011;3706;49.198;7.064;2022-10-16T15:35:55;20.13;;;11.40;;